• Join FlightAware (Why Join?)
  • Login
  • US Flag 
12:22AM EDT


 

Airport Tracker/Info


-or-


 

Live Flight TrackerFlight Track Log ✈ KAP927 ✈ 27-Jun-2013 ✈ KOGS - KALB

Flight Track Log - Related Links

Times and Time Zones

All times are in EDT time to prevent confusion due to time zone crossing. See the KAP927 flight status page for this flight to view local times or setup timezone preferences in your user account.

Time Position Orientation Groundspeed Altitude Reporting Facility
EDT Latitude Longitude Course Direction KTS MPH feet Rate Location/Type
07:08AM 44.4853 -75.2511 148° Southeast 141 162 4,900  Level Boston Center
07:09AM 44.4528 -75.2233 149° Southeast 134 154 5,500 600 Climbing Boston Center
07:10AM 44.4219 -75.1986 150° Southeast 129 148 6,100 540 Climbing Boston Center
07:11AM 44.3894 -75.1739 151° Southeast 129 148 6,600 540 Climbing Boston Center
07:12AM 44.5222 -75.3231 149° Southeast  Level Estimated
07:12AM 44.3567 -75.1406 144° Southeast 139 160 7,200  Level Boston Center
07:13AM 44.4901 -75.2951 148° Southeast  Level FlightAware Approximate
07:13AM 44.3219 -75.1128 150° Southeast 139 160 7,500  Level Boston Center
07:14AM 44.2831 -75.0819 150° Southeast 147 169 7,600  Climbing Boston Center
07:15AM 44.2422 -75.0483 149° Southeast 163 188 7,600  Level Boston Center
07:16AM 44.1953 -75.0058 147° Southeast 169 194 7,600  Level Boston Center
07:17AM 44.1564 -74.9722 148° Southeast 169 194 7,600  Level Boston Center
07:18AM 44.1175 -74.9358 146° Southeast 164 189 7,600 -60 Level Boston Center
07:19AM 44.0808 -74.9025 147° Southeast 164 189 7,500  Descending Boston Center
07:20AM 44.0419 -74.8719 151° Southeast 164 189 7,600  Climbing Boston Center
07:21AM 44.0050 -74.8389 147° Southeast 164 189 7,600  Level Boston Center
07:22AM 43.9661 -74.8083 151° Southeast 164 189 7,600  Level Boston Center
07:23AM 43.9272 -74.7750 148° Southeast 164 189 7,600  Level Boston Center
07:24AM 43.8903 -74.7419 147° Southeast 164 189 7,600  Level Boston Center
07:25AM 43.8492 -74.7117 152° Southeast 164 189 7,600  Level Boston Center
07:26AM 43.8122 -74.6786 147° Southeast 164 189 7,600  Level Boston Center
07:27AM 43.7733 -74.6425 146° Southeast 164 189 7,600  Level Boston Center
07:28AM 43.7344 -74.6094 148° Southeast 164 189 7,600  Level Boston Center
07:29AM 43.6956 -74.5767 149° Southeast 164 189 7,600  Level Boston Center
07:30AM 43.6564 -74.5436 149° Southeast 164 189 7,600  Level Boston Center
07:31AM 43.6175 -74.5136 151° Southeast 164 189 7,600  Level Boston Center
07:32AM 43.5783 -74.4836 151° Southeast 164 189 7,600  Level Boston Center
07:33AM 43.5394 -74.4478 146° Southeast 164 189 7,600  Level Boston Center
07:34AM 43.5025 -74.4181 150° Southeast 164 189 7,600  Level Boston Center
07:35AM 43.4633 -74.3853 149° Southeast 164 189 7,600  Level Boston Center
07:36AM 43.4242 -74.3556 151° Southeast 164 189 7,600  Level Boston Center
07:36AM 43.4017 -74.3375 150° Southeast 164 189 7,600  Level Boston Center
07:37AM 43.3853 -74.3200 142° Southeast 164 189 7,600  Level Boston Center
07:38AM 43.3522 -74.2961 152° Southeast 162 186 7,600  Level Boston Center
07:39AM 43.3133 -74.2664 151° Southeast 164 189 7,600 -180 Level Boston Center
07:40AM 43.2742 -74.2308 147° Southeast 166 191 7,300 -420 Descending Boston Center
07:41AM 43.2328 -74.2042 155° Southeast 179 206 6,900 -540 Descending Boston Center
07:41AM 43.1897 -74.1686 149° Southeast 187 215 6,400 -540 Descending Boston Center
07:42AM 43.1692 -74.1481 144° Southeast 181 208 6,200 -540 Descending Boston Center
07:43AM 43.1444 -74.1303 152° Southeast 185 213 5,800 -720 Descending Boston Center
07:44AM 43.1011 -74.0950 149° Southeast 188 216 5,100 -600 Descending Boston Center
07:44AM 43.0764 -74.0717 145° Southeast 181 208 4,800 -600 Descending Boston Center
07:45AM 43.0189 -74.0247 149° Southeast 181 208 4,100 -720 Descending Boston Center
07:46AM 42.9775 -73.9897 148° Southeast 181 208 3,400 -420 Descending Boston Center
07:47AM 42.9342 -73.9544 149° Southeast 181 208 3,300 -180 Descending Boston Center
07:48AM 42.8950 -73.9222 149° Southeast 176 203 3,100 -300 Descending Boston Center
07:49AM 42.8622 -73.8933 147° Southeast 167 192 2,800 -480 Descending Boston Center
07:50AM 42.8375 -73.8700 145° Southeast 180 207 2,400 -840 Descending Boston Center
07:51AM 42.8067 -73.8269 134° Southeast 157 181 1,600 -900 Descending Boston Center
07:52AM 42.7736 -73.8064 155° Southeast 104 120 700 -900 Descending Boston Center
07:54AM 42.7491 -73.8020 160° South  Level Estimated
08:01AM 42.7491 -73.8020 160° South  Level Estimated
08:02AM 42.7491 -73.8020 160° South  Level Estimated
08:03AM 42.7491 -73.8020 160° South  Level Estimated
08:04AM 42.7491 -73.8020 160° South  Level Estimated